Kezdőlap
METAR-TAF:

METAR-TAF

Repülőterek :

Spaa

Tomaszów Mazowiecki, Lengyelország

földrajzi szélesség: 51-35-04N, földrajzi hosszúság: 020-05-52E, magasság: 174 m

METAR: hiányzik

Idő: 05:27 (04:27 UTC)

Előrejelzés

A jelentés 8 órával és 27 perccel ezelõtt készült, 20:00 UTC
Az előrejelzés 08-én 21 óra UTC és 09-én 06 óra UTC között érvényes
Déli szél 6 kt
Látótávolság 10 km, vagy több
Szakadozott felhőzet 4000 lábon
08-én 22 óra UTC és 09-én 02 óra UTC között ideiglenes
Látótávolság: 6000 m
Szakadozott felhőzet 3000 lábon
enyhe esõ

TAF: EPTM 082000Z 0821/0906 19006KT 9999 BKN040 TEMPO 0822/0902 6000 -RA BKN030

Meteorológiai megfigyelések és előrejelzések több, mint 4000 repülőtéren (METAR és TAF jelentéseket).

A térképen piros és sárga pontok jelzik az elérhető meteorológiai állomásokat.

Mozgassa az egeret a pont fölött, hogy megjelenjen az állomás neve.

Azután kattintson az időjárási megfigyelések és előrejelzések megtekintéséhez.

A térkép megváltoztatása: kattintson a fekete keresztel jelölt zöld gombra ráközelítéshez, a vonallal jelölt zöld gombra távolításhoz, vagy a zöld nyilakra a szomszédos térképek eléréséhez.


METAR-TAF: